createdAt,value
2019-02-19T00:01:35.202Z,4.40
2019-02-19T00:04:08.306Z,4.53
2019-02-19T00:06:37.104Z,4.93
2019-02-19T00:09:07.256Z,4.80
2019-02-19T00:11:36.150Z,4.77
2019-02-19T00:14:04.938Z,4.50
2019-02-19T00:16:33.727Z,4.30
2019-02-19T00:19:02.523Z,4.77
2019-02-19T00:21:31.454Z,5.27
2019-02-19T00:24:27.468Z,3.83
2019-02-19T00:26:56.223Z,4.10
2019-02-19T00:29:25.014Z,4.53
2019-02-19T00:31:54.427Z,4.43
2019-02-19T00:34:23.234Z,4.93
2019-02-19T00:36:52.031Z,4.40
2019-02-19T00:39:20.904Z,4.67
2019-02-19T00:41:50.636Z,4.30
2019-02-19T00:44:19.368Z,4.80
2019-02-19T00:46:48.214Z,5.20
2019-02-19T00:49:17.012Z,4.40
2019-02-19T00:51:45.766Z,5.10
2019-02-19T00:54:14.595Z,5.10
2019-02-19T00:56:45.251Z,4.60
2019-02-19T00:59:14.016Z,4.43
2019-02-19T01:01:42.844Z,4.97
2019-02-19T01:04:12.009Z,5.00
2019-02-19T01:06:40.748Z,4.17
2019-02-19T01:09:09.999Z,4.33
2019-02-19T01:11:38.875Z,5.07
2019-02-19T01:14:07.682Z,4.80
2019-02-19T01:16:36.575Z,4.33
2019-02-19T01:19:05.320Z,4.80
2019-02-19T01:21:34.460Z,4.70
2019-02-19T01:24:03.271Z,5.27
2019-02-19T01:26:31.933Z,4.50
2019-02-19T01:29:00.719Z,4.63
2019-02-19T01:31:29.582Z,4.80
2019-02-19T01:33:58.342Z,4.83
2019-02-19T01:36:27.363Z,5.20
2019-02-19T01:38:57.355Z,4.70
2019-02-19T01:41:26.023Z,4.67
2019-02-19T01:43:58.152Z,4.77
2019-02-19T01:46:32.675Z,4.10
2019-02-19T01:49:06.493Z,4.60
2019-02-19T01:51:44.237Z,4.60
2019-02-19T01:54:21.182Z,4.93
2019-02-19T01:56:55.608Z,4.93
2019-02-19T01:59:50.026Z,5.90
2019-02-19T02:02:06.550Z,5.30
2019-02-19T02:04:36.610Z,4.90
2019-02-19T02:07:14.132Z,4.33
2019-02-19T02:09:47.763Z,4.90
2019-02-19T02:12:16.593Z,4.90
2019-02-19T02:14:45.420Z,4.90
2019-02-19T02:17:14.206Z,4.87
2019-02-19T02:19:43.032Z,5.87
2019-02-19T02:22:11.804Z,5.40
2019-02-19T02:24:40.572Z,5.50
2019-02-19T02:27:09.413Z,4.63
2019-02-19T02:29:38.244Z,4.97
2019-02-19T02:32:07.094Z,5.80
2019-02-19T02:34:35.923Z,6.13
2019-02-19T02:37:04.922Z,4.90
2019-02-19T02:39:33.724Z,5.07
2019-02-19T02:42:07.845Z,5.43
2019-02-19T02:44:41.189Z,5.37
2019-02-19T02:47:07.298Z,5.53
2019-02-19T02:49:36.859Z,5.13
2019-02-19T02:52:05.810Z,5.60
2019-02-19T02:54:34.542Z,5.20
2019-02-19T02:57:03.260Z,4.33
2019-02-19T02:59:32.016Z,5.07
2019-02-19T03:02:00.875Z,4.60
2019-02-19T03:04:29.747Z,4.80
2019-02-19T03:07:12.700Z,5.00
2019-02-19T03:09:42.907Z,4.97
2019-02-19T03:12:11.728Z,4.80
2019-02-19T03:14:40.562Z,4.67
2019-02-19T03:17:09.445Z,4.07
2019-02-19T03:19:38.237Z,4.80
2019-02-19T03:22:07.388Z,4.80
2019-02-19T03:24:37.574Z,4.70
2019-02-19T03:27:06.373Z,4.57
2019-02-19T03:29:35.164Z,4.50
2019-02-19T03:32:04.260Z,4.77
2019-02-19T03:34:33.024Z,4.47
2019-02-19T03:37:01.792Z,4.37
2019-02-19T03:39:30.770Z,4.53
2019-02-19T03:41:59.618Z,4.97
2019-02-19T03:44:28.785Z,4.60
2019-02-19T03:47:41.347Z,5.60
2019-02-19T03:49:52.626Z,5.33
2019-02-19T03:52:23.619Z,4.83
2019-02-19T03:54:52.682Z,4.57
2019-02-19T03:57:21.678Z,5.07
2019-02-19T03:59:50.400Z,4.60
2019-02-19T04:02:19.185Z,6.17
2019-02-19T04:04:48.012Z,4.97
2019-02-19T04:07:16.880Z,5.50
2019-02-19T04:09:46.207Z,5.47
2019-02-19T04:12:14.997Z,5.57
2019-02-19T04:14:43.806Z,5.37
2019-02-19T04:17:14.654Z,5.20
2019-02-19T04:19:43.470Z,5.60
2019-02-19T04:22:12.275Z,5.30
2019-02-19T04:24:41.021Z,4.93
2019-02-19T04:27:09.929Z,6.00
2019-02-19T04:29:38.867Z,5.27
2019-02-19T04:32:07.956Z,6.20
2019-02-19T04:34:36.707Z,6.20
2019-02-19T04:37:05.506Z,5.93
2019-02-19T04:39:34.263Z,5.90
2019-02-19T04:42:03.102Z,5.67
2019-02-19T04:44:31.894Z,5.40
2019-02-19T04:47:00.758Z,5.93
2019-02-19T04:49:29.571Z,5.80
2019-02-19T04:51:58.746Z,5.47
2019-02-19T04:54:27.510Z,5.77
2019-02-19T04:56:56.303Z,5.70
2019-02-19T04:59:25.252Z,5.80
2019-02-19T05:01:54.106Z,6.27
2019-02-19T05:04:22.922Z,5.67
2019-02-19T05:06:56.159Z,6.50
2019-02-19T05:09:22.285Z,6.80
2019-02-19T05:11:51.073Z,6.40
2019-02-19T05:14:20.395Z,7.33
2019-02-19T05:16:49.199Z,7.93
2019-02-19T05:19:18.028Z,7.83
2019-02-19T05:21:47.817Z,8.97
2019-02-19T05:24:16.586Z,10.40
2019-02-19T05:26:45.371Z,10.93
2019-02-19T05:29:14.220Z,9.50
2019-02-19T05:31:43.051Z,10.87
2019-02-19T05:34:12.353Z,10.27
2019-02-19T05:36:41.184Z,10.80
2019-02-19T05:39:09.961Z,10.77
2019-02-19T05:41:39.074Z,10.10
2019-02-19T05:44:07.937Z,11.37
2019-02-19T05:46:36.817Z,11.53
2019-02-19T05:49:05.973Z,10.10
2019-02-19T05:51:34.747Z,11.13
2019-02-19T05:54:03.529Z,10.43
2019-02-19T05:56:32.342Z,10.20
2019-02-19T05:59:05.642Z,10.97
2019-02-19T06:01:35.810Z,12.17
2019-02-19T06:04:04.731Z,12.23
2019-02-19T06:06:33.880Z,10.40
2019-02-19T06:09:03.307Z,12.23
2019-02-19T06:11:32.282Z,11.97
2019-02-19T06:14:01.420Z,11.33
2019-02-19T06:16:30.306Z,11.47
2019-02-19T06:18:59.995Z,11.53
2019-02-19T06:21:31.714Z,11.10
2019-02-19T06:24:00.448Z,11.00
2019-02-19T06:26:29.723Z,9.57
2019-02-19T06:29:00.464Z,11.13
2019-02-19T06:31:29.062Z,9.97
2019-02-19T06:33:58.648Z,9.70
2019-02-19T06:36:27.424Z,11.10
2019-02-19T06:38:56.272Z,10.10
2019-02-19T06:41:25.491Z,11.13
2019-02-19T06:43:54.322Z,11.67
2019-02-19T06:46:23.694Z,10.47
2019-02-19T06:48:52.525Z,11.17
2019-02-19T06:51:21.367Z,11.40
2019-02-19T06:53:50.371Z,11.97
2019-02-19T06:56:23.511Z,10.70
2019-02-19T06:58:55.630Z,10.40
2019-02-19T07:01:44.331Z,10.83
2019-02-19T07:04:16.772Z,12.23
2019-02-19T07:06:45.634Z,11.70
2019-02-19T07:09:15.287Z,11.17
2019-02-19T07:11:44.363Z,11.37
2019-02-19T07:14:13.208Z,10.53
2019-02-19T07:16:42.022Z,10.53
2019-02-19T07:19:12.313Z,11.47
2019-02-19T07:21:45.812Z,12.50
2019-02-19T07:24:18.696Z,10.70
2019-02-19T07:26:51.713Z,11.10
2019-02-19T07:29:20.623Z,10.23
2019-02-19T07:31:52.849Z,9.80
2019-02-19T07:34:22.267Z,10.30
2019-02-19T07:37:09.564Z,9.33
2019-02-19T07:39:38.659Z,9.17
2019-02-19T07:42:07.503Z,10.57
2019-02-19T07:44:43.900Z,10.17
2019-02-19T07:47:26.726Z,9.33
2019-02-19T07:49:58.471Z,9.07
2019-02-19T07:52:34.119Z,9.43
2019-02-19T07:55:05.916Z,10.33
2019-02-19T07:57:38.346Z,9.80
2019-02-19T08:00:16.774Z,9.60
2019-02-19T08:02:48.839Z,10.30
2019-02-19T08:05:22.623Z,11.03
2019-02-19T08:07:52.812Z,11.83
2019-02-19T08:10:27.968Z,11.00
2019-02-19T08:12:59.195Z,10.67
2019-02-19T08:15:30.952Z,10.57
2019-02-19T08:18:01.132Z,11.10
2019-02-19T08:27:19.569Z,9.10
2019-02-19T08:29:56.703Z,9.73
2019-02-19T08:32:32.544Z,9.47
2019-02-19T08:35:06.131Z,9.57
2019-02-19T08:37:43.249Z,8.47
2019-02-19T08:40:27.526Z,8.13
2019-02-19T08:43:04.513Z,8.80
2019-02-19T08:45:36.650Z,8.43
2019-02-19T08:48:09.159Z,8.57
2019-02-19T08:50:41.780Z,8.50
2019-02-19T08:53:19.604Z,8.10
2019-02-19T08:55:51.194Z,8.40
2019-02-19T08:58:23.129Z,7.97
2019-02-19T09:01:02.433Z,7.67
2019-02-19T09:03:37.557Z,6.87
2019-02-19T09:06:09.000Z,8.30
2019-02-19T09:08:53.726Z,8.20
2019-02-19T09:11:27.677Z,8.40
2019-02-19T09:13:58.375Z,7.93
2019-02-19T09:16:32.552Z,8.00
2019-02-19T09:19:13.933Z,7.87
2019-02-19T09:21:45.067Z,6.33
2019-02-19T09:24:16.245Z,5.77
2019-02-19T09:26:46.960Z,5.80
2019-02-19T09:29:21.910Z,6.03
2019-02-19T09:31:55.010Z,6.10
2019-02-19T09:34:36.410Z,6.20
2019-02-19T09:37:07.325Z,8.13
2019-02-19T09:39:45.356Z,6.30
2019-02-19T09:42:17.355Z,5.70
2019-02-19T09:44:52.670Z,4.93
2019-02-19T09:47:25.711Z,4.47
2019-02-19T09:50:00.378Z,4.03
2019-02-19T09:52:35.543Z,4.00
2019-02-19T09:55:20.323Z,4.07
2019-02-19T09:57:54.316Z,4.20
2019-02-19T10:00:26.381Z,4.30
2019-02-19T10:03:02.174Z,4.60
2019-02-19T10:05:36.758Z,3.90
2019-02-19T10:08:20.455Z,3.90
2019-02-19T10:10:55.366Z,4.40
2019-02-19T10:13:26.400Z,4.50
2019-02-19T10:16:00.296Z,4.57
2019-02-19T10:18:29.909Z,4.50
2019-02-19T10:21:04.716Z,4.70
2019-02-19T10:23:36.973Z,4.30
2019-02-19T10:26:10.787Z,4.43
2019-02-19T10:28:46.128Z,4.60
2019-02-19T10:31:20.703Z,4.50
2019-02-19T10:33:55.599Z,4.07
2019-02-19T10:36:32.853Z,4.03
2019-02-19T10:39:16.393Z,3.67
2019-02-19T10:41:48.753Z,4.00
2019-02-19T10:44:29.065Z,4.20
2019-02-19T10:46:58.357Z,3.13
2019-02-19T10:49:32.590Z,2.93
2019-02-19T10:52:06.392Z,3.03
2019-02-19T10:54:37.683Z,3.03
2019-02-19T10:57:16.025Z,2.67
2019-02-19T10:59:48.490Z,3.37
2019-02-19T11:02:20.402Z,3.27
2019-02-19T11:04:51.946Z,3.47
2019-02-19T11:07:23.734Z,3.50
2019-02-19T11:09:54.680Z,3.10
2019-02-19T11:12:31.249Z,3.03
2019-02-19T11:15:02.287Z,2.37
2019-02-19T11:17:34.564Z,2.30
2019-02-19T11:20:11.345Z,2.53
2019-02-19T11:22:41.921Z,2.40
2019-02-19T11:25:16.729Z,2.20
2019-02-19T11:27:51.955Z,2.40
2019-02-19T11:30:24.447Z,4.33
2019-02-19T11:32:57.437Z,2.67
2019-02-19T11:35:34.786Z,2.27
2019-02-19T11:38:20.153Z,2.70
2019-02-19T11:40:57.356Z,2.60
2019-02-19T11:43:29.052Z,2.83
2019-02-19T11:45:58.185Z,2.53
2019-02-19T11:48:37.231Z,2.37
2019-02-19T11:51:07.941Z,2.63
2019-02-19T11:53:49.260Z,2.10
2019-02-19T11:56:29.400Z,2.30
2019-02-19T11:59:09.344Z,2.60
2019-02-19T12:01:40.404Z,2.90
2019-02-19T12:04:13.466Z,2.67
2019-02-19T12:06:47.340Z,2.13
2019-02-19T12:09:23.680Z,3.30
2019-02-19T12:11:57.322Z,2.47
2019-02-19T12:17:21.474Z,2.80
2019-02-19T12:20:00.298Z,2.23
2019-02-19T12:22:46.793Z,2.57
2019-02-19T12:25:19.561Z,1.93
2019-02-19T12:27:52.175Z,2.47
2019-02-19T12:30:36.016Z,2.37
2019-02-19T12:33:15.253Z,2.10
2019-02-19T12:35:45.514Z,1.87
2019-02-19T12:38:22.687Z,2.03
2019-02-19T12:40:53.756Z,1.83
2019-02-19T12:43:26.268Z,1.80
2019-02-19T12:46:00.524Z,1.83
2019-02-19T12:48:35.286Z,1.70
2019-02-19T12:53:59.809Z,2.07
2019-02-19T12:56:29.146Z,1.83
2019-02-19T12:58:58.304Z,1.90
2019-02-19T13:01:29.427Z,1.80
2019-02-19T13:04:50.506Z,1.97
2019-02-19T13:07:25.961Z,1.80
2019-02-19T13:09:56.022Z,1.70
2019-02-19T13:12:48.992Z,1.33
2019-02-19T13:15:22.317Z,1.70
2019-02-19T13:18:10.011Z,1.60
2019-02-19T13:20:49.362Z,1.87
2019-02-19T13:24:02.648Z,1.93
2019-02-19T13:26:40.650Z,1.63
2019-02-19T13:29:12.711Z,1.80
2019-02-19T13:31:53.162Z,1.70
2019-02-19T13:34:17.763Z,1.80
2019-02-19T13:37:26.139Z,1.50
2019-02-19T13:39:57.557Z,1.50
2019-02-19T13:43:05.807Z,1.53
2019-02-19T13:45:40.117Z,1.47
2019-02-19T13:51:13.026Z,1.67
2019-02-19T13:54:21.897Z,1.77
2019-02-19T13:56:52.776Z,1.93
2019-02-19T13:59:26.574Z,1.90
2019-02-19T14:02:13.785Z,1.77
2019-02-19T14:04:46.032Z,1.80
2019-02-19T14:08:02.025Z,1.90
2019-02-19T14:10:36.237Z,1.80
2019-02-19T14:13:46.716Z,1.70
2019-02-19T14:20:04.499Z,1.70
2019-02-19T14:22:40.340Z,1.40
2019-02-19T14:25:52.497Z,1.90
2019-02-19T14:28:37.620Z,1.83
2019-02-19T14:31:49.057Z,1.90
2019-02-19T14:34:41.583Z,1.67
2019-02-19T14:37:57.137Z,1.93
2019-02-19T14:40:31.040Z,1.83
2019-02-19T14:43:33.169Z,1.73
2019-02-19T14:46:12.431Z,1.90
2019-02-19T14:51:47.517Z,1.97
2019-02-19T14:54:50.271Z,1.80
2019-02-19T14:57:28.573Z,1.70
2019-02-19T15:00:47.354Z,2.23
2019-02-19T15:03:44.723Z,1.90
2019-02-19T15:06:55.545Z,1.53
2019-02-19T15:09:47.416Z,2.13
2019-02-19T15:12:52.849Z,2.07
2019-02-19T15:15:24.501Z,1.90
2019-02-19T15:18:03.898Z,1.87
2019-02-19T15:20:51.319Z,2.00
2019-02-19T15:23:21.945Z,2.20
2019-02-19T15:25:53.700Z,2.50
2019-02-19T15:28:42.177Z,1.90
2019-02-19T15:38:23.857Z,1.77
2019-02-19T15:40:58.361Z,1.97
2019-02-19T15:43:37.135Z,1.97
2019-02-19T15:46:32.199Z,2.00
2019-02-19T15:49:21.109Z,2.00
2019-02-19T15:51:55.416Z,2.63
2019-02-19T15:54:26.272Z,1.93
2019-02-19T15:57:07.949Z,2.43
2019-02-19T15:59:56.659Z,1.73
2019-02-19T16:02:37.328Z,2.20
2019-02-19T16:05:11.560Z,1.70
2019-02-19T16:09:02.449Z,1.90
2019-02-19T16:11:15.574Z,1.90
2019-02-19T16:14:23.372Z,2.27
2019-02-19T16:17:04.649Z,2.00
2019-02-19T16:19:36.703Z,1.70
2019-02-19T16:22:24.320Z,2.80
2019-02-19T16:25:00.385Z,3.80
2019-02-19T16:27:41.254Z,4.23
2019-02-19T16:30:14.344Z,2.80
2019-02-19T16:33:04.409Z,2.30
2019-02-19T16:35:39.839Z,2.20
2019-02-19T16:45:03.997Z,2.00
2019-02-19T16:47:52.768Z,2.17
2019-02-19T16:50:38.207Z,2.93
2019-02-19T16:53:12.021Z,3.13
2019-02-19T16:56:06.104Z,5.97
2019-02-19T16:58:54.106Z,5.87
2019-02-19T17:02:07.666Z,5.90
2019-02-19T17:04:53.282Z,5.90
2019-02-19T17:08:01.085Z,4.80
2019-02-19T17:10:50.084Z,4.50
2019-02-19T17:14:33.071Z,5.97
2019-02-19T17:17:06.833Z,4.90
2019-02-19T17:19:56.724Z,5.67
2019-02-19T17:22:49.657Z,6.07
2019-02-19T17:26:06.693Z,7.40
2019-02-19T17:28:41.506Z,6.63
2019-02-19T17:31:44.739Z,6.13
2019-02-19T17:34:25.830Z,4.80
2019-02-19T17:37:40.650Z,4.93
2019-02-19T17:40:26.220Z,4.03
2019-02-19T17:44:04.206Z,3.57
2019-02-19T17:46:40.086Z,4.23
2019-02-19T17:49:35.204Z,4.17
2019-02-19T17:52:18.627Z,4.40
2019-02-19T17:55:15.400Z,4.03
2019-02-19T17:58:09.766Z,5.03
2019-02-19T18:01:19.200Z,4.23
2019-02-19T18:03:53.781Z,5.00
2019-02-19T18:06:26.121Z,4.30
2019-02-19T18:09:01.348Z,5.03
2019-02-19T18:11:43.545Z,4.13
2019-02-19T18:20:58.780Z,4.23
2019-02-19T18:26:31.106Z,4.07
2019-02-19T18:29:05.076Z,5.23
2019-02-19T18:31:37.230Z,4.00
2019-02-19T18:34:07.568Z,5.00
2019-02-19T18:36:42.220Z,4.67
2019-02-19T18:39:30.381Z,4.70
2019-02-19T18:42:03.571Z,4.37
2019-02-19T18:44:39.045Z,4.93
2019-02-19T18:47:37.349Z,4.30
2019-02-19T18:50:16.735Z,4.43
2019-02-19T18:53:03.207Z,4.90
2019-02-19T18:55:37.955Z,4.23
2019-02-19T19:05:05.156Z,4.80
2019-02-19T19:07:38.056Z,4.83
2019-02-19T19:10:42.294Z,5.13
2019-02-19T19:13:15.555Z,5.20
2019-02-19T19:16:29.524Z,5.23
2019-02-19T19:19:06.540Z,7.20
2019-02-19T19:22:31.677Z,6.20
2019-02-19T19:25:45.458Z,8.70
2019-02-19T19:28:40.633Z,6.80
2019-02-19T19:31:17.087Z,6.67
2019-02-19T19:34:14.515Z,5.07
2019-02-19T19:36:46.530Z,5.40
2019-02-19T19:40:07.385Z,5.30
2019-02-19T19:42:44.452Z,5.33
2019-02-19T19:45:29.100Z,4.97
2019-02-19T19:48:20.171Z,5.30
2019-02-19T19:50:49.259Z,5.60
2019-02-19T19:53:33.743Z,6.03
2019-02-19T19:56:30.383Z,6.37
2019-02-19T19:59:18.300Z,6.60
2019-02-19T20:02:27.405Z,6.70
2019-02-19T20:04:59.996Z,5.90
2019-02-19T20:07:57.712Z,5.37
2019-02-19T20:10:27.278Z,6.27
2019-02-19T20:13:38.829Z,6.00
2019-02-19T20:16:21.511Z,6.77
2019-02-19T20:19:27.064Z,7.40
2019-02-19T20:21:59.102Z,6.93
2019-02-19T20:25:26.691Z,7.10
2019-02-19T20:28:09.336Z,5.87
2019-02-19T20:30:53.524Z,5.70
2019-02-19T20:33:31.585Z,6.03
2019-02-19T20:36:29.483Z,4.83
2019-02-19T20:39:01.802Z,4.93
2019-02-19T20:42:09.342Z,6.13
2019-02-19T20:44:46.103Z,6.20
2019-02-19T20:50:18.182Z,5.87
2019-02-19T20:59:55.044Z,5.08
2019-02-19T21:02:29.615Z,5.42
2019-02-19T21:04:59.152Z,4.20
2019-02-19T21:07:35.420Z,4.80
2019-02-19T21:10:48.338Z,4.70
2019-02-19T21:13:26.661Z,5.50
2019-02-19T21:16:34.371Z,5.12
2019-02-19T21:19:10.289Z,5.17
2019-02-19T21:21:44.980Z,5.47
2019-02-19T21:24:16.196Z,4.75
2019-02-19T21:26:57.258Z,5.45
2019-02-19T21:29:28.474Z,4.85
2019-02-19T21:32:02.280Z,4.37
2019-02-19T21:35:02.453Z,4.40
2019-02-19T21:37:35.515Z,4.47
2019-02-19T21:40:39.329Z,4.78
2019-02-19T21:43:18.650Z,4.65
2019-02-19T21:46:23.129Z,4.97
2019-02-19T21:48:56.182Z,5.12
2019-02-19T21:52:07.592Z,4.87
2019-02-19T21:54:41.915Z,4.78
2019-02-19T21:57:15.400Z,5.08
2019-02-19T21:59:47.930Z,4.30
2019-02-19T22:02:22.122Z,4.45
2019-02-19T22:05:13.456Z,4.47
2019-02-19T22:07:46.199Z,4.50
2019-02-19T22:10:22.776Z,4.22
2019-02-19T22:12:58.332Z,5.00
2019-02-19T22:15:31.008Z,4.80
2019-02-19T22:18:11.257Z,4.40
2019-02-19T22:20:47.812Z,5.08
2019-02-19T22:23:34.283Z,4.33
2019-02-19T22:26:06.220Z,4.28
2019-02-19T22:28:38.360Z,4.33
2019-02-19T22:34:45.737Z,4.78
2019-02-19T22:37:20.242Z,4.65
2019-02-19T22:42:50.777Z,4.35
2019-02-19T22:46:04.144Z,4.47
2019-02-19T22:48:42.256Z,4.60
2019-02-19T22:51:12.156Z,4.40
2019-02-19T22:54:21.849Z,4.60
2019-02-19T22:56:52.727Z,4.28
2019-02-19T23:02:21.276Z,4.12
2019-02-19T23:05:21.051Z,3.92
2019-02-19T23:07:55.426Z,4.35
2019-02-19T23:11:10.450Z,4.78
2019-02-19T23:13:47.873Z,4.28
2019-02-19T23:17:01.349Z,4.45
2019-02-19T23:19:33.394Z,4.25
2019-02-19T23:22:53.584Z,4.67
2019-02-19T23:25:27.347Z,4.55
2019-02-19T23:28:29.554Z,4.28
2019-02-19T23:31:02.760Z,4.10
2019-02-19T23:33:37.995Z,4.22
2019-02-19T23:36:19.769Z,4.42
2019-02-19T23:39:01.898Z,4.00
2019-02-19T23:41:35.332Z,4.65
2019-02-19T23:44:08.224Z,4.33
2019-02-19T23:46:40.260Z,3.42
2019-02-19T23:49:17.492Z,4.05
2019-02-19T23:51:52.251Z,4.15
2019-02-19T23:54:25.582Z,4.75
2019-02-19T23:57:01.076Z,4.00
2019-02-19T23:59:34.937Z,3.62
